createdAt,value
2023-04-01T00:02:57.772Z,98568.13
2023-04-01T00:06:00.680Z,98566.88
2023-04-01T00:09:02.604Z,98550.38
2023-04-01T00:12:05.999Z,98556.47
2023-04-01T00:15:11.115Z,98552.56
2023-04-01T00:18:14.846Z,98564.41
2023-04-01T00:21:17.084Z,98565.75
2023-04-01T00:24:20.137Z,98563.38
2023-04-01T00:27:23.448Z,98554.72
2023-04-01T00:30:25.928Z,98566.59
2023-04-01T00:33:28.607Z,98567.41
2023-04-01T00:36:30.770Z,98559.28
2023-04-01T00:39:33.802Z,98554.94
2023-04-01T00:42:38.061Z,98558.22
2023-04-01T00:45:42.097Z,98558.13
2023-04-01T00:48:46.415Z,98548.38
2023-04-01T00:51:51.365Z,98547.44
2023-04-01T00:55:00.155Z,98544.63
2023-04-01T00:58:08.680Z,98540.25
2023-04-01T01:01:11.619Z,98542.78
2023-04-01T01:04:23.421Z,98548.00
2023-04-01T01:07:36.949Z,98534.75
2023-04-01T01:10:40.170Z,98550.47
2023-04-01T01:13:49.788Z,98540.78
2023-04-01T01:16:57.651Z,98506.84
2023-04-01T01:20:26.879Z,98544.91
2023-04-01T01:24:00.631Z,98528.53
2023-04-01T01:27:05.872Z,98541.25
2023-04-01T01:30:27.708Z,98529.47
2023-04-01T01:33:45.816Z,98528.81
2023-04-01T01:36:54.776Z,98511.31
2023-04-01T01:39:59.506Z,98526.06
2023-04-01T01:43:06.661Z,98530.34
2023-04-01T01:46:12.664Z,98529.13
2023-04-01T01:49:16.525Z,98518.31
2023-04-01T01:52:20.106Z,98523.69
2023-04-01T01:55:29.745Z,98525.59
2023-04-01T01:58:41.397Z,98536.94
2023-04-01T02:01:47.687Z,98532.22
2023-04-01T02:04:51.576Z,98523.97
2023-04-01T02:08:02.344Z,98522.69
2023-04-01T02:11:07.807Z,98517.53
2023-04-01T02:14:14.781Z,98527.50
2023-04-01T02:17:19.097Z,98522.72
2023-04-01T02:20:23.833Z,98522.50
2023-04-01T02:23:29.012Z,98510.06
2023-04-01T02:26:31.618Z,98474.88
2023-04-01T02:29:34.588Z,98517.94
2023-04-01T02:32:39.352Z,98514.19
2023-04-01T02:35:41.589Z,98515.03
2023-04-01T02:38:46.489Z,98504.19
2023-04-01T02:41:48.394Z,98498.34
2023-04-01T02:44:50.371Z,98482.41
2023-04-01T02:47:52.321Z,98501.75
2023-04-01T02:50:54.353Z,98492.66
2023-04-01T02:53:57.590Z,98500.16
2023-04-01T02:57:00.536Z,98507.19
2023-04-01T03:00:02.448Z,98505.28
2023-04-01T03:03:04.850Z,98514.69
2023-04-01T03:06:08.165Z,98507.94
2023-04-01T03:09:11.738Z,98508.00
2023-04-01T03:12:13.706Z,98500.34
2023-04-01T03:15:15.868Z,98494.63
2023-04-01T03:18:18.659Z,98505.09
2023-04-01T03:21:23.190Z,98498.97
2023-04-01T03:24:26.711Z,98498.78
2023-04-01T03:27:28.619Z,98513.84
2023-04-01T03:30:34.744Z,98516.25
2023-04-01T03:33:37.738Z,98518.78
2023-04-01T03:36:39.646Z,98511.94
2023-04-01T03:39:44.638Z,98517.03
2023-04-01T03:42:46.903Z,98524.69
2023-04-01T03:45:50.829Z,98526.44
2023-04-01T03:48:53.275Z,98539.50
2023-04-01T03:51:55.163Z,98540.50
2023-04-01T03:54:58.672Z,98484.56
2023-04-01T03:58:03.014Z,98523.19
2023-04-01T04:01:13.941Z,98543.41
2023-04-01T04:04:16.210Z,98540.44
2023-04-01T04:07:18.129Z,98550.28
2023-04-01T04:10:21.803Z,98555.75
2023-04-01T04:13:23.694Z,98548.91
2023-04-01T04:16:25.919Z,98554.47
2023-04-01T04:19:32.313Z,98528.28
2023-04-01T04:22:34.238Z,98532.81
2023-04-01T04:25:37.512Z,98546.25
2023-04-01T04:28:39.645Z,98546.13
2023-04-01T04:31:42.227Z,98539.81
2023-04-01T04:34:44.145Z,98540.06
2023-04-01T04:37:46.093Z,98552.13
2023-04-01T04:40:49.421Z,98534.94
2023-04-01T04:43:53.963Z,98544.00
2023-04-01T04:46:58.348Z,98529.94
2023-04-01T04:50:01.258Z,98528.13
2023-04-01T04:53:03.303Z,98530.41
2023-04-01T04:56:07.026Z,98552.00
2023-04-01T04:59:09.197Z,98546.84
2023-04-01T05:02:11.323Z,98544.00
2023-04-01T05:05:13.232Z,98543.88
2023-04-01T05:08:16.249Z,98534.91
2023-04-01T05:11:21.489Z,98548.91
2023-04-01T05:14:23.337Z,98552.47
2023-04-01T05:17:26.267Z,98542.78
2023-04-01T05:20:28.225Z,98543.72
2023-04-01T05:23:34.209Z,98544.91
2023-04-01T05:26:38.046Z,98545.41
2023-04-01T05:29:39.885Z,98553.47
2023-04-01T05:32:42.064Z,98553.16
2023-04-01T05:35:43.978Z,98553.25
2023-04-01T05:38:49.129Z,98551.13
2023-04-01T05:41:52.359Z,98561.16
2023-04-01T05:44:55.119Z,98563.66
2023-04-01T05:47:57.088Z,98566.06
2023-04-01T05:50:59.935Z,98562.13
2023-04-01T05:54:01.832Z,98555.72
2023-04-01T05:57:05.275Z,98560.72
2023-04-01T06:00:08.456Z,98559.75
2023-04-01T06:03:10.585Z,98553.22
2023-04-01T06:06:16.745Z,98553.72
2023-04-01T06:09:22.712Z,98560.09
2023-04-01T06:12:51.488Z,98554.03
2023-04-01T06:16:01.459Z,98550.16
2023-04-01T06:19:26.817Z,98556.94
2023-04-01T06:22:54.846Z,98547.19
2023-04-01T06:26:19.348Z,98541.56
2023-04-01T06:29:50.028Z,98552.47
2023-04-01T06:33:09.209Z,98553.34
2023-04-01T06:36:24.921Z,98529.81
2023-04-01T06:39:39.220Z,98543.34
2023-04-01T06:43:02.089Z,98556.03
2023-04-01T06:46:14.993Z,98560.72
2023-04-01T06:49:34.863Z,98552.75
2023-04-01T06:52:50.252Z,98564.47
2023-04-01T06:55:58.565Z,98558.94
2023-04-01T06:59:06.592Z,98560.03
2023-04-01T07:02:24.244Z,98567.03
2023-04-01T07:05:30.351Z,98570.13
2023-04-01T07:08:37.963Z,98571.19
2023-04-01T07:11:41.314Z,98568.53
2023-04-01T07:14:45.848Z,98551.53
2023-04-01T07:17:54.890Z,98565.47
2023-04-01T07:20:58.896Z,98556.91
2023-04-01T07:24:05.525Z,98557.53
2023-04-01T07:27:10.996Z,98555.88
2023-04-01T07:30:17.230Z,98564.50
2023-04-01T07:33:27.355Z,98566.72
2023-04-01T07:36:36.228Z,98557.09
2023-04-01T07:39:48.580Z,98569.59
2023-04-01T07:43:06.586Z,98573.50
2023-04-01T07:46:19.153Z,98570.00
2023-04-01T07:49:31.863Z,98566.94
2023-04-01T07:52:40.050Z,98556.28
2023-04-01T07:55:49.170Z,98569.16
2023-04-01T07:59:00.470Z,98576.56
2023-04-01T08:02:11.163Z,98515.00
2023-04-01T08:05:23.494Z,98500.03
2023-04-01T08:08:36.934Z,98506.88
2023-04-01T08:11:52.368Z,98516.16
2023-04-01T08:15:05.861Z,98495.44
2023-04-01T08:18:19.021Z,98508.31
2023-04-01T08:21:26.483Z,98510.84
2023-04-01T08:24:44.716Z,98519.63
2023-04-01T08:27:54.550Z,98509.56
2023-04-01T08:31:02.860Z,98576.81
2023-04-01T08:34:07.100Z,98579.16
2023-04-01T08:37:15.322Z,98575.94
2023-04-01T08:40:56.647Z,98582.72
2023-04-01T08:44:21.769Z,98578.81
2023-04-01T08:47:53.903Z,98580.47
2023-04-01T08:51:25.113Z,98570.81
2023-04-01T08:54:47.258Z,98573.25
2023-04-01T08:58:02.895Z,98577.50
2023-04-01T09:01:15.350Z,98525.75
2023-04-01T09:05:04.375Z,98568.34
2023-04-01T09:08:21.210Z,98562.00
2023-04-01T09:11:32.309Z,98564.53
2023-04-01T09:14:57.881Z,98558.13
2023-04-01T09:18:21.374Z,98562.19
2023-04-01T09:21:33.104Z,98558.63
2023-04-01T09:25:10.746Z,98557.53
2023-04-01T09:28:19.701Z,98556.22
2023-04-01T09:31:42.208Z,98557.16
2023-04-01T09:34:56.116Z,98557.50
2023-04-01T09:38:19.073Z,98557.50
2023-04-01T09:41:30.686Z,98553.81
2023-04-01T09:44:36.153Z,98548.84
2023-04-01T09:47:52.105Z,98542.38
2023-04-01T09:51:04.177Z,98525.97
2023-04-01T09:54:14.828Z,98553.09
2023-04-01T09:57:56.340Z,98556.63
2023-04-01T10:01:19.721Z,98555.41
2023-04-01T10:05:06.953Z,98564.75
2023-04-01T10:08:38.196Z,98569.59
2023-04-01T10:12:19.933Z,98560.09
2023-04-01T10:15:42.055Z,98560.31
2023-04-01T10:19:11.553Z,98559.22
2023-04-01T10:22:29.042Z,98563.00
2023-04-01T10:25:58.153Z,98564.88
2023-04-01T10:29:49.123Z,98560.31
2023-04-01T10:33:39.385Z,98560.72
2023-04-01T10:36:52.314Z,98566.03
2023-04-01T10:40:26.572Z,98562.84
2023-04-01T10:44:21.822Z,98556.78
2023-04-01T10:47:44.918Z,98560.34
2023-04-01T10:51:12.857Z,98555.03
2023-04-01T10:54:42.415Z,98555.69
2023-04-01T10:58:11.691Z,98556.47
2023-04-01T11:01:37.638Z,98545.41
2023-04-01T11:05:09.004Z,98556.09
2023-04-01T11:08:41.507Z,98550.09
2023-04-01T11:12:13.637Z,98538.63
2023-04-01T11:15:48.033Z,98531.81
2023-04-01T11:19:20.642Z,98543.38
2023-04-01T11:22:42.531Z,98542.38
2023-04-01T11:25:57.120Z,98553.84
2023-04-01T11:29:30.188Z,98564.63
2023-04-01T11:32:54.113Z,98555.19
2023-04-01T11:36:12.970Z,98555.72
2023-04-01T11:39:24.906Z,98567.53
2023-04-01T11:42:41.521Z,98567.53
2023-04-01T11:45:51.845Z,98573.88
2023-04-01T11:49:07.755Z,98561.81
2023-04-01T11:52:22.833Z,98580.50
2023-04-01T11:55:33.376Z,98572.38
2023-04-01T11:58:47.936Z,98574.44
2023-04-01T12:02:04.304Z,98564.66
2023-04-01T12:05:35.894Z,98563.47
2023-04-01T12:08:47.660Z,98561.41
2023-04-01T12:12:00.688Z,98561.41
2023-04-01T12:15:18.962Z,98554.63
2023-04-01T12:18:28.295Z,98567.13
2023-04-01T12:21:37.405Z,98568.78
2023-04-01T12:24:50.463Z,98575.94
2023-04-01T12:28:06.716Z,98569.78
2023-04-01T12:31:20.485Z,98561.41
2023-04-01T12:34:58.981Z,98568.78
2023-04-01T12:38:17.644Z,98573.47
2023-04-01T12:41:27.792Z,98559.16
2023-04-01T12:44:41.242Z,98525.72
2023-04-01T12:48:08.415Z,98555.84
2023-04-01T12:51:38.605Z,98558.34
2023-04-01T12:55:34.197Z,98556.88
2023-04-01T12:59:08.745Z,98559.31
2023-04-01T13:02:19.064Z,98548.88
2023-04-01T13:05:56.983Z,98548.72
2023-04-01T13:09:17.982Z,98536.38
2023-04-01T13:12:44.361Z,98549.72
2023-04-01T13:15:53.161Z,98530.88
2023-04-01T13:19:00.957Z,98538.00
2023-04-01T13:22:12.637Z,98533.09
2023-04-01T13:25:29.047Z,98540.53
2023-04-01T13:28:37.561Z,98537.97
2023-04-01T13:31:56.326Z,98546.50
2023-04-01T13:35:13.434Z,98547.28
2023-04-01T13:38:40.543Z,98547.75
2023-04-01T13:42:03.557Z,98543.94
2023-04-01T13:45:15.394Z,98553.78
2023-04-01T13:48:32.696Z,98565.03
2023-04-01T13:52:10.017Z,98551.94
2023-04-01T13:55:44.605Z,98558.13
2023-04-01T13:59:06.549Z,98561.88
2023-04-01T14:02:30.978Z,98563.00
2023-04-01T14:05:57.406Z,98562.63
2023-04-01T14:09:42.417Z,98568.34
2023-04-01T14:12:52.607Z,98553.03
2023-04-01T14:16:07.993Z,98548.91
2023-04-01T14:19:27.732Z,98546.22
2023-04-01T14:22:38.517Z,98551.16
2023-04-01T14:26:18.847Z,98548.69
2023-04-01T14:29:33.628Z,98550.75
2023-04-01T14:32:47.795Z,98558.75
2023-04-01T14:36:05.322Z,98555.22
2023-04-01T14:39:30.516Z,98545.53
2023-04-01T14:42:54.509Z,98536.50
2023-04-01T14:46:15.056Z,98543.00
2023-04-01T14:49:22.968Z,98543.59
2023-04-01T14:52:29.834Z,98543.81
2023-04-01T14:55:35.934Z,98545.88
2023-04-01T14:58:45.406Z,98559.28
2023-04-01T15:01:57.258Z,98518.19
2023-04-01T15:05:15.998Z,98548.06
2023-04-01T15:08:22.471Z,98545.22
2023-04-01T15:11:39.217Z,98554.59
2023-04-01T15:14:58.011Z,98557.69
2023-04-01T15:18:11.426Z,98546.44
2023-04-01T15:21:20.283Z,98557.72
2023-04-01T15:24:25.705Z,98555.47
2023-04-01T15:27:43.897Z,98546.22
2023-04-01T15:30:53.100Z,98551.53
2023-04-01T15:34:21.328Z,98541.88
2023-04-01T15:37:39.698Z,98548.00
2023-04-01T15:40:48.156Z,98537.94
2023-04-01T15:43:53.427Z,98547.78
2023-04-01T15:46:58.222Z,98540.59
2023-04-01T15:50:23.160Z,98560.72
2023-04-01T15:53:45.200Z,98552.72
2023-04-01T15:57:05.583Z,98563.38
2023-04-01T16:00:20.802Z,98575.25
2023-04-01T16:03:36.012Z,98577.69
2023-04-01T16:07:02.373Z,98562.38
2023-04-01T16:10:22.899Z,98571.19
2023-04-01T16:13:36.534Z,98577.53
2023-04-01T16:16:54.902Z,98589.03
2023-04-01T16:20:01.111Z,98587.78
2023-04-01T16:23:13.161Z,98562.22
2023-04-01T16:26:23.738Z,98601.16
2023-04-01T16:29:36.511Z,98600.31
2023-04-01T16:32:45.912Z,98608.50
2023-04-01T16:35:57.022Z,98603.81
2023-04-01T16:39:37.476Z,98607.09
2023-04-01T16:42:50.863Z,98602.78
2023-04-01T16:46:04.023Z,98616.72
2023-04-01T16:49:24.392Z,98614.84
2023-04-01T16:52:44.659Z,98605.41
2023-04-01T16:55:52.736Z,98598.03
2023-04-01T16:59:03.882Z,98627.84
2023-04-01T17:02:14.527Z,98630.09
2023-04-01T17:05:16.841Z,98629.84
2023-04-01T17:08:31.532Z,98627.78
2023-04-01T17:11:41.771Z,98599.09
2023-04-01T17:14:53.028Z,98641.56
2023-04-01T17:18:04.964Z,98647.66
2023-04-01T17:21:11.717Z,98646.88
2023-04-01T17:24:30.320Z,98654.13
2023-04-01T17:27:49.772Z,98658.19
2023-04-01T17:31:03.706Z,98634.50
2023-04-01T17:34:28.468Z,98664.00
2023-04-01T17:37:47.580Z,98659.88
2023-04-01T17:41:04.705Z,98670.97
2023-04-01T17:44:25.185Z,98673.09
2023-04-01T17:47:51.960Z,98669.88
2023-04-01T17:51:09.813Z,98667.34
2023-04-01T17:54:26.100Z,98662.31
2023-04-01T17:57:45.678Z,98679.78
2023-04-01T18:01:01.979Z,98703.06
2023-04-01T18:04:49.443Z,98704.84
2023-04-01T18:08:10.522Z,98689.94
2023-04-01T18:11:24.791Z,98709.50
2023-04-01T18:14:51.888Z,98698.19
2023-04-01T18:18:07.248Z,98712.63
2023-04-01T18:21:23.624Z,98721.72
2023-04-01T18:24:31.863Z,98717.81
2023-04-01T18:27:40.436Z,98731.13
2023-04-01T18:30:45.717Z,98735.25
2023-04-01T18:33:59.412Z,98729.81
2023-04-01T18:37:18.932Z,98729.50
2023-04-01T18:40:28.496Z,98735.72
2023-04-01T18:43:40.661Z,98733.13
2023-04-01T18:46:53.814Z,98736.56
2023-04-01T18:50:03.194Z,98737.16
2023-04-01T18:53:23.838Z,98744.56
2023-04-01T18:56:32.047Z,98740.53
2023-04-01T18:59:42.600Z,98753.09
2023-04-01T19:02:52.960Z,98741.34
2023-04-01T19:06:02.536Z,98751.47
2023-04-01T19:09:19.887Z,98756.31
2023-04-01T19:12:39.858Z,98744.03
2023-04-01T19:15:52.043Z,98751.13
2023-04-01T19:19:09.484Z,98746.19
2023-04-01T19:22:29.283Z,98743.19
2023-04-01T19:25:40.260Z,98750.19
2023-04-01T19:28:54.971Z,98746.28
2023-04-01T19:32:06.475Z,98754.25
2023-04-01T19:35:20.818Z,98754.81
2023-04-01T19:38:38.664Z,98763.16
2023-04-01T19:41:49.748Z,98762.34
2023-04-01T19:45:06.153Z,98775.66
2023-04-01T19:48:27.594Z,98765.13
2023-04-01T19:51:36.781Z,98764.81
2023-04-01T19:54:47.846Z,98760.50
2023-04-01T19:58:03.177Z,98772.50
2023-04-01T20:01:11.398Z,98763.72
2023-04-01T20:04:19.691Z,98791.91
2023-04-01T20:07:29.223Z,98799.97
2023-04-01T20:10:37.245Z,98790.13
2023-04-01T20:13:52.780Z,98792.53
2023-04-01T20:17:04.507Z,98799.38
2023-04-01T20:20:21.824Z,98788.59
2023-04-01T20:23:43.794Z,98784.66
2023-04-01T20:26:52.125Z,98788.25
2023-04-01T20:30:18.725Z,98791.41
2023-04-01T20:33:43.826Z,98792.41
2023-04-01T20:36:59.178Z,98785.22
2023-04-01T20:40:25.246Z,98790.91
2023-04-01T20:43:59.114Z,98795.63
2023-04-01T20:47:16.192Z,98795.69
2023-04-01T20:50:27.845Z,98802.13
2023-04-01T20:53:38.721Z,98815.44
2023-04-01T20:56:57.243Z,98811.50
2023-04-01T21:00:25.800Z,98827.03
2023-04-01T21:03:41.868Z,98819.22
2023-04-01T21:07:10.554Z,98827.25
2023-04-01T21:10:41.164Z,98818.47
2023-04-01T21:13:55.641Z,98807.47
2023-04-01T21:17:09.685Z,98818.09
2023-04-01T21:20:30.042Z,98831.16
2023-04-01T21:23:48.526Z,98826.44
2023-04-01T21:26:56.763Z,98832.72
2023-04-01T21:30:08.583Z,98831.19
2023-04-01T21:33:28.021Z,98827.06
2023-04-01T21:36:52.230Z,98826.72
2023-04-01T21:40:12.379Z,98828.53
2023-04-01T21:43:26.365Z,98819.91
2023-04-01T21:47:09.510Z,98820.06
2023-04-01T21:50:36.083Z,98811.56
2023-04-01T21:54:08.332Z,98778.72
2023-04-01T21:57:38.279Z,98817.84
2023-04-01T22:00:49.677Z,98815.03
2023-04-01T22:04:27.780Z,98816.31
2023-04-01T22:07:38.686Z,98821.56
2023-04-01T22:10:48.106Z,98823.84
2023-04-01T22:13:56.081Z,98825.13
2023-04-01T22:16:59.416Z,98815.25
2023-04-01T22:20:17.693Z,98834.03
2023-04-01T22:23:27.435Z,98829.19
2023-04-01T22:26:38.303Z,98841.75
2023-04-01T22:29:44.400Z,98831.66
2023-04-01T22:32:49.510Z,98827.72
2023-04-01T22:35:59.586Z,98843.72
2023-04-01T22:39:12.727Z,98847.13
2023-04-01T22:42:35.484Z,98851.34
2023-04-01T22:46:05.762Z,98869.09
2023-04-01T22:49:17.616Z,98869.19
2023-04-01T22:52:29.715Z,98876.88
2023-04-01T22:55:35.001Z,98880.59
2023-04-01T22:58:43.786Z,98885.44
2023-04-01T23:01:50.693Z,98889.84
2023-04-01T23:05:02.415Z,98890.09
2023-04-01T23:08:25.619Z,98899.94
2023-04-01T23:11:31.162Z,98900.63
2023-04-01T23:14:50.562Z,98900.09
2023-04-01T23:18:13.871Z,98918.00
2023-04-01T23:21:22.490Z,98909.88
2023-04-01T23:24:31.814Z,98909.88
2023-04-01T23:27:40.025Z,98897.56
2023-04-01T23:30:51.242Z,98913.69
2023-04-01T23:33:55.855Z,98907.53
2023-04-01T23:37:01.949Z,98910.44
2023-04-01T23:40:06.152Z,98901.13
2023-04-01T23:43:15.495Z,98892.06
2023-04-01T23:46:18.799Z,98903.13
2023-04-01T23:49:24.056Z,98907.06
2023-04-01T23:52:28.792Z,98901.25
2023-04-01T23:55:33.668Z,98906.72
2023-04-01T23:58:45.103Z,98906.59
